Time;durP1;ratioP1;P1;durP2;ratioP2;P2;SDS_P1;SDS_P2;PMS_P1;PMS_P2;Temp;Humidity;BMP_temperature;BMP_pressure;BME280_temperature;BME280_humidity;BME280_pressure;Samples;Min_cycle;Max_cycle;Signal;HPM_P1;HPM_P2
2023/05/05 00:01:43;;;;;;;11.55;6.50;;;;;;;;;;5029340;28;20096;-67
2023/05/05 00:04:09;;;;;;;10.02;6.20;;;;;;;;;;5031772;28;20495;-67
2023/05/05 00:06:35;;;;;;;10.05;5.88;;;;;;;;;;5030598;28;20041;-67
2023/05/05 00:09:01;;;;;;;11.48;6.55;;;;;;;;;;5029976;28;20045;-67
2023/05/05 00:11:27;;;;;;;10.57;6.80;;;;;;;;;;5030589;28;20407;-67
2023/05/05 00:13:53;;;;;;;10.48;5.95;;;;;;;;;;5031163;28;20037;-67
2023/05/05 00:16:19;;;;;;;11.88;6.47;;;;;;;;;;5029623;28;20033;-67
2023/05/05 00:18:46;;;;;;;11.48;6.13;;;;;;;;;;5031443;28;20495;-67
2023/05/05 00:21:12;;;;;;;10.07;6.90;;;;;;;;;;5030895;28;20120;-67
2023/05/05 00:23:38;;;;;;;11.90;6.28;;;;;;;;;;5032204;28;20087;-67
2023/05/05 00:26:04;;;;;;;10.07;6.20;;;;;;;;;;5029751;28;20041;-67
2023/05/05 00:28:30;;;;;;;12.25;6.88;;;;;;;;;;5030406;28;20037;-67
2023/05/05 00:30:56;;;;;;;8.48;6.50;;;;;;;;;;5031905;28;20406;-67
2023/05/05 00:33:22;;;;;;;11.95;6.38;;;;;;;;;;5025086;28;20033;-67
2023/05/05 00:35:48;;;;;;;16.02;6.90;;;;;;;;;;5029659;28;20487;-67
2023/05/05 00:38:14;;;;;;;13.98;6.55;;;;;;;;;;5031248;28;20095;-67
2023/05/05 00:40:40;;;;;;;10.75;6.72;;;;;;;;;;5023571;28;20033;-67
2023/05/05 00:43:06;;;;;;;10.38;6.57;;;;;;;;;;5021115;28;20095;-67
2023/05/05 00:45:32;;;;;;;10.18;6.38;;;;;;;;;;5028793;28;20044;-67
2023/05/05 00:47:59;;;;;;;11.25;6.80;;;;;;;;;;5029395;28;20045;-67
2023/05/05 00:50:26;;;;;;;11.93;6.80;;;;;;;;;;5026334;28;20045;-67
2023/05/05 00:52:53;;;;;;;10.00;6.28;;;;;;;;;;5027919;28;20044;-67
2023/05/05 00:55:19;;;;;;;11.52;6.78;;;;;;;;;;5028864;28;20045;-67
2023/05/05 00:57:45;;;;;;;12.70;6.90;;;;;;;;;;5027972;28;20042;-67
2023/05/05 01:00:11;;;;;;;9.52;6.93;;;;;;;;;;5025976;28;20045;-66
2023/05/05 01:02:38;;;;;;;13.05;6.82;;;;;;;;;;5024639;28;20098;-66
2023/05/05 01:05:05;;;;;;;9.85;6.75;;;;;;;;;;5028953;28;20072;-66
2023/05/05 01:07:43;;;;;;;12.98;7.00;;;;;;;;;;5029838;28;20048;-68
2023/05/05 01:10:25;;;;;;;9.50;6.53;;;;;;;;;;5029840;28;20046;-67
2023/05/05 01:12:53;;;;;;;11.32;6.80;;;;;;;;;;5028659;28;20056;-68
2023/05/05 01:15:31;;;;;;;9.13;6.38;;;;;;;;;;5028819;28;20037;-68
2023/05/05 01:18:15;;;;;;;12.50;6.50;;;;;;;;;;5025596;28;20045;-67
2023/05/05 01:21:00;;;;;;;9.45;6.65;;;;;;;;;;5027094;28;20447;-68
2023/05/05 01:23:41;;;;;;;13.57;6.82;;;;;;;;;;5025986;28;20116;-67
2023/05/05 01:26:27;;;;;;;11.63;6.80;;;;;;;;;;5026729;28;20033;-68
2023/05/05 01:29:08;;;;;;;9.35;6.60;;;;;;;;;;5011993;28;20054;-68
2023/05/05 01:31:34;;;;;;;;;;;;;;;;;;5030643;28;20460;-67
2023/05/05 01:34:03;;;;;;;11.48;7.15;;;;;;;;;;5068949;22;20022;-61
2023/05/05 01:36:36;;;;;;;10.70;7.05;;;;;;;;;;5087092;28;20040;-62
2023/05/05 01:39:02;;;;;;;11.63;7.22;;;;;;;;;;5089933;28;20028;-61
2023/05/05 01:41:36;;;;;;;13.32;7.85;;;;;;;;;;5087467;28;20125;-61
2023/05/05 01:44:04;;;;;;;11.40;7.07;;;;;;;;;;5090498;28;20062;-62
2023/05/05 01:46:31;;;;;;;11.23;6.95;;;;;;;;;;5082953;28;20098;-62
2023/05/05 01:48:58;;;;;;;12.32;7.20;;;;;;;;;;5089417;28;20571;-61
2023/05/05 01:51:25;;;;;;;9.80;6.95;;;;;;;;;;5086796;28;20048;-61
2023/05/05 01:53:53;;;;;;;11.63;7.30;;;;;;;;;;5085670;28;20036;-61
2023/05/05 01:56:20;;;;;;;10.35;6.63;;;;;;;;;;5090236;28;20044;-62
2023/05/05 01:58:46;;;;;;;9.85;7.00;;;;;;;;;;5091981;28;20375;-62
2023/05/05 02:01:12;;;;;;;10.07;7.13;;;;;;;;;;5088701;28;20028;-62
2023/05/05 02:03:39;;;;;;;9.02;6.25;;;;;;;;;;5093807;28;20414;-61
2023/05/05 02:06:06;;;;;;;10.25;7.25;;;;;;;;;;5090046;28;20040;-62
2023/05/05 02:08:34;;;;;;;11.23;6.90;;;;;;;;;;5092369;28;20537;-61
2023/05/05 02:11:01;;;;;;;11.85;6.68;;;;;;;;;;5092903;28;20040;-61
2023/05/05 02:13:28;;;;;;;10.32;6.88;;;;;;;;;;5092927;28;20040;-61
2023/05/05 02:15:54;;;;;;;10.90;6.65;;;;;;;;;;5088511;28;20044;-61
2023/05/05 02:18:22;;;;;;;12.13;6.85;;;;;;;;;;5093975;28;20042;-61
2023/05/05 02:20:48;;;;;;;12.63;6.78;;;;;;;;;;5093516;28;20078;-61
2023/05/05 02:23:14;;;;;;;9.70;6.80;;;;;;;;;;5092517;28;20119;-61
2023/05/05 02:25:41;;;;;;;11.52;7.00;;;;;;;;;;5092432;28;20114;-62
2023/05/05 02:28:12;;;;;;;12.60;7.20;;;;;;;;;;5093133;28;20036;-62
2023/05/05 02:30:39;;;;;;;10.50;7.13;;;;;;;;;;5093817;28;20031;-61
2023/05/05 02:33:09;;;;;;;9.15;6.90;;;;;;;;;;5090779;28;20401;-61
2023/05/05 02:35:38;;;;;;;12.98;7.40;;;;;;;;;;5092227;28;20535;-61
2023/05/05 02:38:05;;;;;;;12.85;7.13;;;;;;;;;;5093430;28;20123;-61
2023/05/05 02:40:33;;;;;;;10.82;7.30;;;;;;;;;;5092661;28;20036;-61
2023/05/05 02:43:03;;;;;;;13.23;7.03;;;;;;;;;;5093426;28;20048;-61
2023/05/05 02:45:29;;;;;;;10.90;7.25;;;;;;;;;;5091487;28;20115;-62
2023/05/05 02:47:55;;;;;;;10.63;7.32;;;;;;;;;;5091836;28;20464;-62
2023/05/05 02:50:21;;;;;;;9.70;7.10;;;;;;;;;;5092792;28;20097;-61
2023/05/05 02:52:47;;;;;;;10.52;7.28;;;;;;;;;;5090921;28;20048;-62
2023/05/05 02:55:13;;;;;;;11.77;7.00;;;;;;;;;;5090898;28;20063;-61
2023/05/05 02:57:48;;;;;;;11.05;7.25;;;;;;;;;;5092786;28;20036;-61
2023/05/05 03:00:33;;;;;;;10.65;7.50;;;;;;;;;;5093143;28;20067;-61
2023/05/05 03:03:20;;;;;;;10.63;6.57;;;;;;;;;;5092616;28;20040;-61
2023/05/05 03:05:53;;;;;;;12.50;7.22;;;;;;;;;;5091051;28;20052;-61
2023/05/05 03:08:27;;;;;;;13.00;7.13;;;;;;;;;;5092350;28;20047;-61
2023/05/05 03:10:58;;;;;;;11.00;7.15;;;;;;;;;;5092772;28;20040;-62
2023/05/05 03:13:25;;;;;;;12.00;6.72;;;;;;;;;;5091435;28;20082;-61
2023/05/05 03:15:52;;;;;;;12.27;6.97;;;;;;;;;;5092730;28;20061;-61
2023/05/05 03:18:20;;;;;;;10.15;7.30;;;;;;;;;;5091105;28;20036;-61
2023/05/05 03:20:47;;;;;;;15.63;7.60;;;;;;;;;;5090319;28;20119;-61
2023/05/05 03:23:13;;;;;;;12.20;7.28;;;;;;;;;;5089141;28;20028;-62
2023/05/05 03:25:45;;;;;;;10.80;6.95;;;;;;;;;;5091072;28;20470;-61
2023/05/05 03:28:12;;;;;;;11.38;7.40;;;;;;;;;;5089993;28;20047;-61
2023/05/05 03:30:38;;;;;;;11.43;7.57;;;;;;;;;;5090019;28;20039;-61
2023/05/05 03:33:04;;;;;;;8.98;7.07;;;;;;;;;;5085647;28;20040;-61
2023/05/05 03:35:30;;;;;;;11.18;7.22;;;;;;;;;;5084624;28;20169;-61
2023/05/05 03:37:56;;;;;;;11.20;6.60;;;;;;;;;;5087994;28;20127;-61
2023/05/05 03:40:22;;;;;;;11.23;7.38;;;;;;;;;;5091911;28;20043;-61
2023/05/05 03:42:49;;;;;;;10.75;7.10;;;;;;;;;;5089629;28;20040;-61
2023/05/05 03:45:15;;;;;;;12.65;7.75;;;;;;;;;;5091420;28;20051;-61
2023/05/05 03:47:40;;;;;;;11.55;7.40;;;;;;;;;;5090633;28;20036;-61
2023/05/05 03:50:07;;;;;;;14.25;8.52;;;;;;;;;;5087610;28;20405;-61
2023/05/05 03:52:33;;;;;;;11.20;7.40;;;;;;;;;;5089203;28;20398;-61
2023/05/05 03:54:59;;;;;;;12.05;7.55;;;;;;;;;;5089550;28;20042;-62
2023/05/05 03:57:25;;;;;;;10.75;7.13;;;;;;;;;;5087402;28;20043;-62
2023/05/05 03:59:51;;;;;;;13.40;7.80;;;;;;;;;;5087429;28;20394;-61
2023/05/05 04:02:17;;;;;;;14.82;8.98;;;;;;;;;;5084142;28;20048;-62
2023/05/05 04:04:43;;;;;;;12.52;7.78;;;;;;;;;;5089180;28;20043;-61
2023/05/05 04:07:10;;;;;;;14.00;8.88;;;;;;;;;;5089564;28;20044;-61
2023/05/05 04:09:37;;;;;;;13.60;8.88;;;;;;;;;;5088531;28;20047;-60
2023/05/05 04:12:04;;;;;;;16.40;9.48;;;;;;;;;;5090353;28;20108;-60
2023/05/05 04:14:30;;;;;;;12.27;8.50;;;;;;;;;;5090916;28;20047;-61
2023/05/05 04:16:56;;;;;;;10.18;8.40;;;;;;;;;;5089591;28;20048;-60
2023/05/05 04:19:22;;;;;;;12.57;8.77;;;;;;;;;;5090665;28;20443;-60
2023/05/05 04:21:49;;;;;;;12.15;9.02;;;;;;;;;;5086943;28;20036;-61
2023/05/05 04:24:15;;;;;;;13.00;9.00;;;;;;;;;;5088849;28;20520;-61
2023/05/05 04:26:41;;;;;;;14.02;8.52;;;;;;;;;;5090778;28;20032;-60
2023/05/05 04:29:08;;;;;;;13.23;8.43;;;;;;;;;;5088271;28;20039;-61
2023/05/05 04:31:34;;;;;;;10.70;7.82;;;;;;;;;;5096492;28;20043;-60
2023/05/05 04:34:00;;;;;;;12.13;8.25;;;;;;;;;;5089462;28;20032;-60
2023/05/05 04:36:26;;;;;;;13.48;8.77;;;;;;;;;;5090561;28;20048;-61
2023/05/05 04:38:52;;;;;;;12.18;9.07;;;;;;;;;;5091757;28;20508;-60
2023/05/05 04:41:18;;;;;;;10.25;7.82;;;;;;;;;;5090655;28;20371;-60
2023/05/05 04:43:44;;;;;;;12.70;8.70;;;;;;;;;;5090439;28;20096;-60
2023/05/05 04:46:10;;;;;;;11.98;8.63;;;;;;;;;;5082814;28;20044;-60
2023/05/05 04:48:37;;;;;;;12.90;8.20;;;;;;;;;;5090197;28;20046;-59
2023/05/05 04:51:03;;;;;;;15.48;8.77;;;;;;;;;;5091354;28;20442;-60
2023/05/05 04:53:29;;;;;;;11.60;8.70;;;;;;;;;;5090613;28;20063;-60
2023/05/05 04:55:55;;;;;;;14.40;8.85;;;;;;;;;;5090481;28;20068;-60
2023/05/05 04:58:21;;;;;;;17.08;8.98;;;;;;;;;;5085133;28;20044;-60
2023/05/05 05:00:47;;;;;;;12.82;8.45;;;;;;;;;;5085252;28;20044;-61
2023/05/05 05:03:13;;;;;;;12.75;8.63;;;;;;;;;;5091416;28;20077;-60
2023/05/05 05:05:39;;;;;;;13.80;8.90;;;;;;;;;;5095401;28;20032;-61
2023/05/05 05:08:05;;;;;;;16.40;9.18;;;;;;;;;;5091882;28;20051;-60
2023/05/05 05:10:31;;;;;;;13.93;9.25;;;;;;;;;;5091211;28;20500;-61
2023/05/05 05:12:57;;;;;;;13.55;8.50;;;;;;;;;;5083750;28;20040;-61
2023/05/05 05:15:23;;;;;;;14.88;8.98;;;;;;;;;;5089145;28;20067;-60
2023/05/05 05:17:49;;;;;;;11.77;8.35;;;;;;;;;;5090509;28;20044;-61
2023/05/05 05:20:15;;;;;;;10.65;9.27;;;;;;;;;;5091147;28;20433;-60
2023/05/05 05:22:41;;;;;;;12.05;9.27;;;;;;;;;;5103766;28;20031;-61
2023/05/05 05:25:07;;;;;;;11.25;8.07;;;;;;;;;;5101047;28;20877;-60
2023/05/05 05:27:33;;;;;;;14.85;9.20;;;;;;;;;;5090432;28;20113;-60
2023/05/05 05:29:59;;;;;;;11.15;8.63;;;;;;;;;;5090300;28;20086;-61
2023/05/05 05:32:25;;;;;;;11.93;8.77;;;;;;;;;;5093545;28;20036;-60
2023/05/05 05:34:51;;;;;;;13.30;9.43;;;;;;;;;;5094826;28;20043;-60
2023/05/05 05:37:17;;;;;;;13.70;9.80;;;;;;;;;;5093634;28;20125;-60
2023/05/05 05:39:43;;;;;;;16.48;9.50;;;;;;;;;;5095701;28;20506;-60
2023/05/05 05:42:09;;;;;;;13.45;8.90;;;;;;;;;;5091621;28;20036;-60
2023/05/05 05:44:35;;;;;;;12.52;8.70;;;;;;;;;;5092960;28;20047;-61
2023/05/05 05:47:01;;;;;;;13.95;8.73;;;;;;;;;;5094971;28;20047;-61
2023/05/05 05:49:27;;;;;;;13.27;8.93;;;;;;;;;;5093358;28;20119;-61
2023/05/05 05:51:53;;;;;;;14.27;9.38;;;;;;;;;;5094159;28;20036;-61
2023/05/05 05:54:19;;;;;;;16.30;9.18;;;;;;;;;;5091020;28;20043;-60
2023/05/05 05:56:45;;;;;;;15.38;9.02;;;;;;;;;;5092796;28;20119;-61
2023/05/05 05:59:11;;;;;;;15.57;9.48;;;;;;;;;;5094144;28;20383;-60
2023/05/05 06:01:37;;;;;;;13.77;9.75;;;;;;;;;;5092514;28;20060;-60
2023/05/05 06:04:03;;;;;;;12.18;8.27;;;;;;;;;;5092087;28;20040;-61
2023/05/05 06:06:29;;;;;;;12.20;8.60;;;;;;;;;;5093452;28;20390;-61
2023/05/05 06:08:55;;;;;;;12.18;8.73;;;;;;;;;;5091971;28;20040;-60
2023/05/05 06:11:21;;;;;;;15.10;8.77;;;;;;;;;;5090794;28;20060;-60
2023/05/05 06:13:47;;;;;;;14.65;9.27;;;;;;;;;;5086974;28;20047;-61
2023/05/05 06:16:13;;;;;;;17.75;9.35;;;;;;;;;;5091743;28;20032;-61
2023/05/05 06:18:39;;;;;;;11.85;9.02;;;;;;;;;;5092811;28;20039;-60
2023/05/05 06:21:05;;;;;;;15.27;8.98;;;;;;;;;;5087321;28;20035;-61
2023/05/05 06:23:31;;;;;;;12.52;9.02;;;;;;;;;;5086040;28;20123;-61
2023/05/05 06:25:57;;;;;;;12.00;8.55;;;;;;;;;;5091386;28;20136;-61
2023/05/05 06:28:23;;;;;;;12.40;8.95;;;;;;;;;;5093609;28;20523;-60
2023/05/05 06:30:49;;;;;;;16.33;9.35;;;;;;;;;;5090608;28;20056;-60
2023/05/05 06:33:15;;;;;;;13.13;9.02;;;;;;;;;;5092852;28;20040;-61
2023/05/05 06:35:41;;;;;;;14.15;9.27;;;;;;;;;;5093229;28;20075;-60
2023/05/05 06:38:08;;;;;;;11.88;9.65;;;;;;;;;;5094344;28;20455;-60
2023/05/05 06:40:34;;;;;;;14.30;9.18;;;;;;;;;;5091132;28;20036;-60
2023/05/05 06:43:00;;;;;;;14.30;9.52;;;;;;;;;;5093867;28;20047;-61
2023/05/05 06:45:26;;;;;;;12.07;9.63;;;;;;;;;;5093500;28;20043;-61
2023/05/05 06:47:52;;;;;;;13.18;9.30;;;;;;;;;;5093806;28;20035;-60
2023/05/05 06:50:18;;;;;;;14.85;9.85;;;;;;;;;;5091543;28;20031;-60
2023/05/05 06:52:44;;;;;;;13.35;9.88;;;;;;;;;;5093654;28;20039;-60
2023/05/05 06:55:10;;;;;;;12.27;9.23;;;;;;;;;;5090083;28;20032;-61
2023/05/05 06:57:36;;;;;;;15.32;10.38;;;;;;;;;;5089928;28;20040;-61
2023/05/05 07:00:08;;;;;;;14.88;10.25;;;;;;;;;;5095175;28;20071;-60
2023/05/05 07:02:34;;;;;;;13.80;10.05;;;;;;;;;;5088449;28;20051;-61
2023/05/05 07:05:00;;;;;;;18.98;11.43;;;;;;;;;;5092716;28;20040;-61
2023/05/05 07:07:26;;;;;;;12.80;10.15;;;;;;;;;;5093537;28;20043;-61
2023/05/05 07:09:52;;;;;;;14.57;10.52;;;;;;;;;;5088436;28;20167;-61
2023/05/05 07:12:18;;;;;;;14.90;10.25;;;;;;;;;;5089318;28;20042;-61
2023/05/05 07:14:45;;;;;;;16.20;11.48;;;;;;;;;;5090543;28;20127;-61
2023/05/05 07:17:11;;;;;;;15.68;10.40;;;;;;;;;;5093289;28;20047;-61
2023/05/05 07:19:37;;;;;;;14.73;11.20;;;;;;;;;;5092240;28;20035;-61
2023/05/05 07:22:03;;;;;;;12.20;10.25;;;;;;;;;;5087641;28;20043;-61
2023/05/05 07:24:29;;;;;;;17.10;10.98;;;;;;;;;;5091970;28;20032;-61
2023/05/05 07:26:56;;;;;;;14.73;11.15;;;;;;;;;;5091586;28;20039;-61
2023/05/05 07:29:22;;;;;;;15.30;12.10;;;;;;;;;;5089172;28;20092;-61
2023/05/05 07:31:48;;;;;;;14.55;11.57;;;;;;;;;;5091495;28;20760;-60
2023/05/05 07:34:14;;;;;;;17.63;11.23;;;;;;;;;;5100324;22;20044;-64
2023/05/05 07:36:40;;;;;;;19.00;11.60;;;;;;;;;;5087269;28;20040;-64
2023/05/05 07:39:06;;;;;;;15.85;11.93;;;;;;;;;;5078155;28;20093;-64
2023/05/05 07:41:32;;;;;;;17.17;11.43;;;;;;;;;;5083717;28;20035;-64
2023/05/05 07:44:00;;;;;;;18.00;12.07;;;;;;;;;;5071492;28;20040;-64
2023/05/05 07:46:26;;;;;;;17.58;11.68;;;;;;;;;;5073479;28;20047;-63
2023/05/05 07:48:51;;;;;;;16.33;11.57;;;;;;;;;;5092530;28;20050;-66
2023/05/05 07:51:17;;;;;;;14.15;11.18;;;;;;;;;;5086283;28;20114;-66
2023/05/05 07:53:43;;;;;;;17.55;12.05;;;;;;;;;;5086063;28;20052;-65
2023/05/05 07:56:10;;;;;;;16.58;12.02;;;;;;;;;;5085642;28;20102;-66
2023/05/05 07:58:36;;;;;;;16.10;11.80;;;;;;;;;;5084185;28;20036;-66
2023/05/05 08:01:02;;;;;;;16.55;12.25;;;;;;;;;;5079241;28;20405;-65
2023/05/05 08:03:27;;;;;;;14.20;11.50;;;;;;;;;;5086705;28;20088;-66
2023/05/05 08:05:54;;;;;;;18.27;12.65;;;;;;;;;;5088192;28;20123;-65
2023/05/05 08:08:23;;;;;;;17.40;12.45;;;;;;;;;;5092550;28;20047;-65
2023/05/05 08:10:50;;;;;;;18.58;12.38;;;;;;;;;;5084038;28;20096;-65
2023/05/05 08:13:16;;;;;;;19.00;12.80;;;;;;;;;;5085424;28;20051;-65
2023/05/05 08:15:43;;;;;;;16.00;12.52;;;;;;;;;;5086794;28;20036;-65
2023/05/05 08:18:09;;;;;;;18.38;11.93;;;;;;;;;;5086168;28;20040;-65
2023/05/05 08:20:36;;;;;;;16.15;12.50;;;;;;;;;;5091712;28;20043;-65
2023/05/05 08:23:01;;;;;;;17.15;12.18;;;;;;;;;;5092369;28;20043;-65
2023/05/05 08:25:27;;;;;;;18.55;12.80;;;;;;;;;;5086658;28;20039;-65
2023/05/05 08:27:53;;;;;;;16.70;12.52;;;;;;;;;;5079855;28;20111;-66
2023/05/05 08:30:21;;;;;;;17.08;12.55;;;;;;;;;;5091906;28;20060;-65
2023/05/05 08:32:47;;;;;;;18.10;12.15;;;;;;;;;;5083543;28;20040;-65
2023/05/05 08:35:13;;;;;;;17.30;13.07;;;;;;;;;;5080499;28;20044;-66
2023/05/05 08:37:39;;;;;;;19.20;13.02;;;;;;;;;;5091580;28;20036;-65
2023/05/05 08:40:05;;;;;;;20.90;13.13;;;;;;;;;;5083979;28;20097;-65
2023/05/05 08:42:31;;;;;;;19.83;12.70;;;;;;;;;;5085003;28;20371;-66
2023/05/05 08:44:58;;;;;;;20.20;12.95;;;;;;;;;;5089195;28;20047;-66
2023/05/05 08:47:24;;;;;;;20.50;12.38;;;;;;;;;;5084886;28;20461;-65
2023/05/05 08:49:52;;;;;;;16.17;13.15;;;;;;;;;;5088365;28;20123;-65
2023/05/05 08:52:22;;;;;;;17.55;13.50;;;;;;;;;;5071069;28;20050;-66
2023/05/05 08:54:56;;;;;;;19.35;14.60;;;;;;;;;;5078375;28;20052;-65
2023/05/05 08:57:32;;;;;;;18.50;13.45;;;;;;;;;;5083955;28;20119;-66
2023/05/05 09:00:00;;;;;;;20.92;13.25;;;;;;;;;;5092020;28;20040;-66
2023/05/05 09:02:28;;;;;;;19.05;13.07;;;;;;;;;;5091738;28;20043;-66
2023/05/05 09:04:54;;;;;;;19.58;14.10;;;;;;;;;;5086139;28;20387;-66
2023/05/05 09:07:20;;;;;;;20.10;13.57;;;;;;;;;;5086847;28;20047;-65
2023/05/05 09:09:46;;;;;;;20.95;14.15;;;;;;;;;;5096155;28;20040;-66
2023/05/05 09:12:14;;;;;;;21.73;14.25;;;;;;;;;;5095138;28;20155;-66
2023/05/05 09:14:40;;;;;;;19.48;13.70;;;;;;;;;;5095920;28;20040;-66
2023/05/05 09:17:06;;;;;;;18.27;14.13;;;;;;;;;;5095908;28;20043;-66
2023/05/05 09:19:32;;;;;;;19.73;14.07;;;;;;;;;;5089430;28;20070;-65
2023/05/05 09:21:58;;;;;;;16.45;13.02;;;;;;;;;;5083576;28;20036;-66
2023/05/05 09:24:24;;;;;;;19.17;13.52;;;;;;;;;;5085470;28;20032;-66
2023/05/05 09:26:50;;;;;;;19.63;14.15;;;;;;;;;;5095101;28;20040;-66
2023/05/05 09:29:19;;;;;;;18.08;13.60;;;;;;;;;;5095718;28;20040;-66
2023/05/05 09:32:04;;;;;;;16.67;13.15;;;;;;;;;;5095063;28;20078;-66
2023/05/05 09:34:30;;;;;;;21.05;13.52;;;;;;;;;;5095346;28;20174;-65
2023/05/05 09:36:56;;;;;;;18.15;13.52;;;;;;;;;;5080491;28;20097;-66
2023/05/05 09:39:22;;;;;;;18.70;13.65;;;;;;;;;;5095296;28;20031;-66
2023/05/05 09:41:48;;;;;;;21.58;15.50;;;;;;;;;;5095272;28;20042;-66
2023/05/05 09:44:15;;;;;;;23.85;15.70;;;;;;;;;;5094635;28;20512;-66
2023/05/05 09:46:51;;;;;;;23.23;15.10;;;;;;;;;;5095040;28;20096;-66
2023/05/05 09:49:18;;;;;;;21.92;15.30;;;;;;;;;;5095491;28;20040;-66
2023/05/05 09:51:44;;;;;;;21.83;15.02;;;;;;;;;;5092932;28;20500;-66
2023/05/05 09:54:31;;;;;;;22.08;15.50;;;;;;;;;;5089350;28;20058;-66
2023/05/05 09:56:57;;;;;;;20.02;15.45;;;;;;;;;;5094801;28;20041;-66
2023/05/05 09:59:23;;;;;;;23.58;16.48;;;;;;;;;;5094887;28;20123;-66
2023/05/05 10:01:50;;;;;;;21.48;14.40;;;;;;;;;;5094652;28;20036;-65
2023/05/05 10:04:27;;;;;;;22.88;15.52;;;;;;;;;;5094972;28;20055;-65
2023/05/05 10:06:54;;;;;;;20.20;13.90;;;;;;;;;;5094995;28;20089;-66
2023/05/05 10:09:20;;;;;;;20.63;15.20;;;;;;;;;;5086642;28;20111;-65
2023/05/05 10:11:46;;;;;;;18.27;13.57;;;;;;;;;;5086981;28;20459;-66
2023/05/05 10:14:16;;;;;;;17.92;12.77;;;;;;;;;;5093359;28;20066;-65
2023/05/05 10:16:47;;;;;;;18.80;13.63;;;;;;;;;;5090121;28;20032;-65
2023/05/05 10:19:15;;;;;;;19.60;13.02;;;;;;;;;;5087499;28;20044;-65
2023/05/05 10:21:41;;;;;;;19.13;12.90;;;;;;;;;;5094354;28;20410;-65
2023/05/05 10:24:11;;;;;;;18.27;12.90;;;;;;;;;;5093265;28;20039;-65
2023/05/05 10:26:39;;;;;;;19.90;12.70;;;;;;;;;;5088463;28;20507;-65
2023/05/05 10:29:07;;;;;;;19.60;12.23;;;;;;;;;;5094289;28;20044;-65
2023/05/05 10:31:39;;;;;;;18.92;12.23;;;;;;;;;;5089726;28;20406;-65
2023/05/05 10:34:08;;;;;;;14.80;10.75;;;;;;;;;;5089565;28;20039;-66
2023/05/05 10:36:35;;;;;;;14.32;10.13;;;;;;;;;;5085763;28;20047;-65
2023/05/05 10:39:02;;;;;;;12.65;8.60;;;;;;;;;;5077692;28;20636;-65
2023/05/05 10:41:29;;;;;;;10.95;8.45;;;;;;;;;;5085864;28;20367;-66
2023/05/05 10:43:58;;;;;;;11.32;7.68;;;;;;;;;;5092928;28;20051;-65
2023/05/05 10:46:26;;;;;;;12.73;7.75;;;;;;;;;;5071903;28;20044;-66
2023/05/05 10:48:57;;;;;;;11.73;7.00;;;;;;;;;;5089866;28;20047;-66
2023/05/05 10:51:36;;;;;;;9.65;6.07;;;;;;;;;;5075026;28;20444;-65
2023/05/05 10:54:24;;;;;;;8.15;5.55;;;;;;;;;;5091745;28;20044;-66
2023/05/05 10:56:50;;;;;;;7.30;4.93;;;;;;;;;;5093193;28;20450;-65
2023/05/05 10:59:35;;;;;;;10.63;6.60;;;;;;;;;;5088970;28;20036;-65
2023/05/05 11:02:01;;;;;;;10.43;7.53;;;;;;;;;;5093419;28;20042;-65
2023/05/05 11:04:27;;;;;;;9.07;5.95;;;;;;;;;;5093604;28;20114;-65
2023/05/05 11:07:08;;;;;;;9.20;5.18;;;;;;;;;;5092873;28;20091;-65
2023/05/05 11:09:40;;;;;;;;;;;;;;;;;;5086035;28;20036;-66
2023/05/05 11:12:07;;;;;;;12.48;6.18;;;;;;;;;;5091562;28;19924;-66
2023/05/05 11:14:33;;;;;;;7.43;5.15;;;;;;;;;;5090426;28;20121;-65
2023/05/05 11:17:00;;;;;;;9.52;5.57;;;;;;;;;;5089802;28;20040;-65
2023/05/05 11:19:44;;;;;;;6.25;3.13;;;;;;;;;;5091231;28;20047;-65
2023/05/05 11:22:10;;;;;;;4.65;3.65;;;;;;;;;;5093160;28;20036;-66
2023/05/05 11:24:38;;;;;;;6.30;4.65;;;;;;;;;;5087743;28;20040;-65
2023/05/05 11:27:04;;;;;;;8.95;5.00;;;;;;;;;;5091634;28;20048;-66
2023/05/05 11:29:49;;;;;;;7.63;4.88;;;;;;;;;;5085862;28;20036;-65
2023/05/05 11:32:15;;;;;;;6.32;3.50;;;;;;;;;;5091833;28;20401;-66
2023/05/05 11:34:48;;;;;;;5.00;2.50;;;;;;;;;;5092507;28;20040;-66
2023/05/05 11:37:17;;;;;;;4.75;2.50;;;;;;;;;;5092126;28;20044;-65
2023/05/05 11:39:50;;;;;;;8.60;3.20;;;;;;;;;;5083583;28;20162;-66
2023/05/05 11:42:19;;;;;;;3.35;2.25;;;;;;;;;;5091881;28;20096;-66
2023/05/05 11:44:45;;;;;;;6.18;2.70;;;;;;;;;;5092810;28;20035;-65
2023/05/05 11:47:11;;;;;;;4.85;2.50;;;;;;;;;;5089170;28;20040;-66
2023/05/05 11:49:38;;;;;;;3.78;2.88;;;;;;;;;;5082501;28;20032;-66
2023/05/05 11:52:06;;;;;;;5.25;2.30;;;;;;;;;;5092668;28;20036;-66
2023/05/05 11:54:34;;;;;;;6.63;2.40;;;;;;;;;;5086872;28;20043;-65
2023/05/05 11:57:03;;;;;;;5.32;2.83;;;;;;;;;;5086079;28;20040;-66
2023/05/05 11:59:30;;;;;;;4.07;2.58;;;;;;;;;;5083961;28;20493;-65
2023/05/05 12:01:56;;;;;;;6.30;3.33;;;;;;;;;;5092340;28;20044;-65
2023/05/05 12:04:22;;;;;;;5.65;3.50;;;;;;;;;;5085973;28;20028;-65
2023/05/05 12:06:48;;;;;;;6.40;3.70;;;;;;;;;;5085259;28;20032;-66
2023/05/05 12:09:17;;;;;;;8.48;4.30;;;;;;;;;;5090754;28;20078;-66
2023/05/05 12:11:50;;;;;;;5.70;3.75;;;;;;;;;;5091500;28;20409;-65
2023/05/05 12:14:16;;;;;;;5.95;3.78;;;;;;;;;;5086134;28;20081;-66
2023/05/05 12:16:54;;;;;;;7.70;4.70;;;;;;;;;;5087475;28;20028;-63
2023/05/05 12:19:21;;;;;;;8.65;3.72;;;;;;;;;;5092216;28;20048;-64
2023/05/05 12:21:47;;;;;;;9.63;4.40;;;;;;;;;;5091541;28;20044;-65
2023/05/05 12:24:13;;;;;;;7.53;4.10;;;;;;;;;;5083339;28;20040;-64
2023/05/05 12:26:40;;;;;;;8.43;4.30;;;;;;;;;;5092175;28;20106;-65
2023/05/05 12:29:06;;;;;;;6.32;3.90;;;;;;;;;;5091376;28;20036;-64
2023/05/05 12:31:36;;;;;;;6.32;3.78;;;;;;;;;;5082405;28;20040;-64
2023/05/05 12:34:02;;;;;;;5.85;3.90;;;;;;;;;;5090818;28;20031;-64
2023/05/05 12:36:29;;;;;;;5.88;3.30;;;;;;;;;;5092108;28;20036;-65
2023/05/05 12:38:55;;;;;;;6.32;3.60;;;;;;;;;;5089675;28;20105;-64
2023/05/05 12:41:21;;;;;;;7.63;3.30;;;;;;;;;;5090537;28;20477;-65
2023/05/05 12:43:47;;;;;;;6.85;2.75;;;;;;;;;;5088949;28;20071;-64
2023/05/05 12:46:13;;;;;;;5.85;2.70;;;;;;;;;;5082728;28;20032;-65
2023/05/05 12:48:42;;;;;;;5.18;2.60;;;;;;;;;;5091215;28;20132;-65
2023/05/05 12:51:18;;;;;;;5.13;2.20;;;;;;;;;;5090501;28;20555;-65
2023/05/05 12:53:48;;;;;;;3.80;2.50;;;;;;;;;;5090674;28;20049;-65
2023/05/05 12:56:34;;;;;;;5.25;2.53;;;;;;;;;;5086405;28;20040;-65
2023/05/05 12:59:04;;;;;;;4.00;2.22;;;;;;;;;;5069583;28;20052;-65
2023/05/05 13:01:30;;;;;;;4.68;2.13;;;;;;;;;;5084675;28;20039;-65
2023/05/05 13:04:06;;;;;;;5.72;2.95;;;;;;;;;;5085986;28;20409;-65
2023/05/05 13:06:32;;;;;;;4.90;1.90;;;;;;;;;;5083181;28;20513;-64
2023/05/05 13:08:58;;;;;;;2.20;0.93;;;;;;;;;;5090145;28;20044;-64
2023/05/05 13:11:25;;;;;;;1.77;0.77;;;;;;;;;;5086874;28;20040;-65
2023/05/05 13:13:51;;;;;;;3.42;1.00;;;;;;;;;;5083540;28;20044;-67
2023/05/05 13:16:16;;;;;;;7.40;1.77;;;;;;;;;;5081742;28;20055;-66
2023/05/05 13:18:46;;;;;;;8.40;1.60;;;;;;;;;;5084826;28;20032;-64
2023/05/05 13:21:12;;;;;;;7.78;1.80;;;;;;;;;;5090650;28;20567;-64
2023/05/05 13:23:42;;;;;;;8.60;1.23;;;;;;;;;;5084048;28;20032;-65
2023/05/05 13:26:08;;;;;;;3.97;1.17;;;;;;;;;;5081643;28;20048;-64
2023/05/05 13:28:34;;;;;;;3.33;1.13;;;;;;;;;;5086223;28;20347;-64
2023/05/05 13:31:00;;;;;;;3.63;1.20;;;;;;;;;;5089414;28;20046;-64
2023/05/05 13:33:26;;;;;;;4.72;1.40;;;;;;;;;;5091513;28;20062;-66
2023/05/05 13:35:52;;;;;;;4.28;1.15;;;;;;;;;;5094700;22;20550;-63
2023/05/05 13:38:18;;;;;;;5.53;1.27;;;;;;;;;;5070281;28;20035;-64
2023/05/05 13:40:44;;;;;;;3.25;1.15;;;;;;;;;;5067547;28;20544;-63
2023/05/05 13:43:10;;;;;;;6.38;1.20;;;;;;;;;;5070827;28;20444;-63
2023/05/05 13:45:36;;;;;;;3.88;1.30;;;;;;;;;;5071243;28;20037;-64
2023/05/05 13:48:02;;;;;;;4.57;1.48;;;;;;;;;;5070626;28;20044;-63
2023/05/05 13:50:28;;;;;;;3.42;1.10;;;;;;;;;;5056893;28;20491;-63
2023/05/05 13:52:55;;;;;;;2.35;1.00;;;;;;;;;;5055912;28;20098;-63
2023/05/05 13:55:21;;;;;;;2.30;1.10;;;;;;;;;;5052695;28;20037;-64
2023/05/05 13:57:46;;;;;;;2.28;0.93;;;;;;;;;;5052454;28;20057;-64
2023/05/05 14:00:13;;;;;;;2.20;0.80;;;;;;;;;;5049906;28;20114;-64
2023/05/05 14:02:39;;;;;;;4.75;1.00;;;;;;;;;;5061368;28;20041;-63
2023/05/05 14:05:05;;;;;;;5.45;0.98;;;;;;;;;;5072073;28;20422;-64
2023/05/05 14:07:31;;;;;;;2.47;0.75;;;;;;;;;;5062091;28;20049;-64
2023/05/05 14:09:57;;;;;;;4.68;1.00;;;;;;;;;;5054737;28;20040;-64
2023/05/05 14:12:23;;;;;;;4.20;0.82;;;;;;;;;;5050937;28;20055;-63
2023/05/05 14:14:49;;;;;;;2.60;1.00;;;;;;;;;;5052796;28;20057;-63
2023/05/05 14:17:15;;;;;;;3.22;1.08;;;;;;;;;;5054507;28;20499;-63
2023/05/05 14:19:41;;;;;;;4.90;1.00;;;;;;;;;;5054555;28;20175;-63
2023/05/05 14:22:07;;;;;;;4.55;1.10;;;;;;;;;;5053934;28;20033;-62
2023/05/05 14:24:33;;;;;;;1.42;0.70;;;;;;;;;;5053441;28;20554;-63
2023/05/05 14:27:01;;;;;;;3.65;1.00;;;;;;;;;;5062373;28;20052;-63
2023/05/05 14:29:27;;;;;;;2.80;1.10;;;;;;;;;;5046902;28;20052;-63
2023/05/05 14:31:53;;;;;;;2.78;1.15;;;;;;;;;;5051045;28;20041;-62
2023/05/05 14:34:19;;;;;;;3.28;1.35;;;;;;;;;;5052534;28;20506;-63